createdAt,value
2022-08-19T00:01:07.909Z,31.46
2022-08-19T00:03:50.741Z,31.55
2022-08-19T00:06:40.687Z,31.25
2022-08-19T00:09:37.576Z,31.30
2022-08-19T00:12:32.691Z,31.35
2022-08-19T00:15:18.301Z,31.42
2022-08-19T00:18:06.595Z,31.21
2022-08-19T00:20:56.196Z,30.99
2022-08-19T00:23:38.574Z,31.07
2022-08-19T00:26:27.835Z,31.29
2022-08-19T00:29:11.786Z,31.09
2022-08-19T00:31:58.836Z,30.81
2022-08-19T00:34:47.913Z,30.87
2022-08-19T00:37:37.045Z,30.96
2022-08-19T00:40:20.865Z,30.92
2022-08-19T00:43:09.196Z,30.97
2022-08-19T00:45:51.573Z,31.08
2022-08-19T00:48:42.971Z,31.06
2022-08-19T00:51:25.586Z,30.88
2022-08-19T00:54:14.213Z,30.86
2022-08-19T00:56:58.868Z,30.97
2022-08-19T01:00:00.781Z,30.63
2022-08-19T01:02:50.633Z,30.65
2022-08-19T01:05:39.903Z,30.64
2022-08-19T01:08:24.932Z,30.73
2022-08-19T01:11:20.532Z,30.88
2022-08-19T01:14:08.619Z,30.77
2022-08-19T01:16:51.934Z,30.68
2022-08-19T01:19:44.873Z,30.73
2022-08-19T01:22:33.856Z,30.60
2022-08-19T01:25:27.685Z,30.91
2022-08-19T01:28:18.688Z,31.00
2022-08-19T01:31:27.839Z,31.12
2022-08-19T01:34:11.945Z,30.96
2022-08-19T01:37:00.086Z,30.83
2022-08-19T01:39:41.556Z,30.92
2022-08-19T01:42:30.723Z,30.78
2022-08-19T01:45:13.676Z,30.80
2022-08-19T01:48:02.853Z,30.73
2022-08-19T01:50:46.580Z,30.71
2022-08-19T01:53:30.500Z,31.02
2022-08-19T01:56:23.699Z,30.62
2022-08-19T01:59:17.591Z,30.74
2022-08-19T02:02:06.721Z,31.15
2022-08-19T02:04:49.021Z,31.45
2022-08-19T09:03:18.910Z,36.43
2022-08-19T09:06:25.880Z,36.28
2022-08-19T09:09:23.506Z,36.64
2022-08-19T09:13:10.794Z,36.66
2022-08-19T09:16:25.612Z,36.86
2022-08-19T09:19:22.227Z,36.81
2022-08-19T09:22:08.679Z,36.93
2022-08-19T09:25:01.952Z,36.71
2022-08-19T09:27:46.269Z,36.52
2022-08-19T09:30:52.995Z,36.71
2022-08-19T09:33:35.099Z,36.96
2022-08-19T09:36:34.757Z,36.74
2022-08-19T09:39:17.108Z,36.73
2022-08-19T09:42:05.827Z,36.37
2022-08-19T09:45:10.175Z,36.49
2022-08-19T09:47:52.959Z,36.43
2022-08-19T09:50:51.927Z,36.63
2022-08-19T09:53:35.898Z,36.60
2022-08-19T09:56:21.636Z,36.43
2022-08-19T09:59:10.913Z,36.56
2022-08-19T10:01:53.624Z,36.45
2022-08-19T10:05:02.097Z,36.66
2022-08-19T10:07:56.950Z,36.91
2022-08-19T10:10:46.724Z,36.30
2022-08-19T10:13:31.124Z,36.63
2022-08-19T10:16:31.025Z,36.38
2022-08-19T10:19:13.096Z,36.35
2022-08-19T10:22:03.929Z,36.74
2022-08-19T10:24:52.826Z,36.95
2022-08-19T10:27:51.355Z,36.96
2022-08-19T10:30:40.827Z,36.73
2022-08-19T10:33:38.882Z,36.40
2022-08-19T10:36:52.278Z,36.38
2022-08-19T10:39:48.029Z,36.50
2022-08-19T10:42:33.196Z,36.16
2022-08-19T10:45:22.938Z,36.31
2022-08-19T10:48:15.657Z,36.73
2022-08-19T10:51:22.744Z,36.71
2022-08-19T10:54:12.542Z,36.60
2022-08-19T10:57:01.916Z,36.31
2022-08-19T10:59:44.232Z,36.17
2022-08-19T11:02:32.921Z,36.55
2022-08-19T11:05:16.668Z,36.17
2022-08-19T11:08:23.176Z,35.84
2022-08-19T11:11:08.126Z,36.12
2022-08-19T11:13:58.927Z,36.28
2022-08-19T11:16:41.486Z,36.42
2022-08-19T11:19:31.928Z,36.36
2022-08-19T11:22:14.738Z,36.36
2022-08-19T11:25:07.913Z,36.59
2022-08-19T11:27:56.280Z,36.51
2022-08-19T11:30:37.909Z,36.11
2022-08-19T11:33:21.137Z,36.07
2022-08-19T11:36:09.907Z,36.19
2022-08-19T11:38:56.874Z,36.24
2022-08-19T11:41:45.882Z,36.22
2022-08-19T11:44:37.960Z,35.92
2022-08-19T11:47:20.956Z,35.76
2022-08-19T11:50:09.277Z,36.11
2022-08-19T11:52:52.834Z,35.77
2022-08-19T11:55:44.959Z,35.86
2022-08-19T11:58:27.927Z,35.96
2022-08-19T12:01:13.181Z,36.21
2022-08-19T12:04:05.812Z,35.80
2022-08-19T12:07:00.781Z,35.72
2022-08-19T12:09:55.825Z,35.80
2022-08-19T12:12:39.996Z,35.67
2022-08-19T12:15:29.967Z,35.61
2022-08-19T12:18:19.114Z,35.73
2022-08-19T12:21:08.926Z,35.39
2022-08-19T12:23:59.890Z,35.40
2022-08-19T12:26:53.316Z,35.55
2022-08-19T12:30:09.514Z,35.55
2022-08-19T12:32:51.890Z,35.27
2022-08-19T12:35:34.189Z,35.34
2022-08-19T12:38:23.819Z,35.38
2022-08-19T12:41:08.238Z,35.33
2022-08-19T12:43:57.923Z,34.93
2022-08-19T12:46:40.225Z,34.90
2022-08-19T12:49:54.671Z,35.21
2022-08-19T12:52:34.193Z,34.96
2022-08-19T12:55:22.900Z,34.96
2022-08-19T12:58:41.765Z,34.94
2022-08-19T13:01:42.793Z,35.07
2022-08-19T13:04:25.116Z,34.71
2022-08-19T13:07:13.945Z,34.74
2022-08-19T13:10:08.815Z,34.53
2022-08-19T13:12:59.973Z,34.38
2022-08-19T13:16:01.226Z,34.69
2022-08-19T13:18:51.829Z,34.57
2022-08-19T13:21:36.094Z,34.52
2022-08-19T13:24:31.360Z,34.67
2022-08-19T13:27:16.197Z,34.53
2022-08-19T13:30:22.944Z,34.26
2022-08-19T13:33:15.520Z,34.12
2022-08-19T13:36:09.915Z,34.39
2022-08-19T13:38:53.817Z,34.33
2022-08-19T13:41:42.906Z,34.44
2022-08-19T13:44:26.208Z,34.54
2022-08-19T13:47:15.839Z,34.49
2022-08-19T13:50:01.389Z,34.26
2022-08-19T13:52:49.904Z,33.87
2022-08-19T13:55:35.240Z,34.11
2022-08-19T13:58:23.961Z,34.29
2022-08-19T14:01:07.229Z,34.00
2022-08-19T14:04:14.877Z,34.00
2022-08-19T14:07:22.825Z,34.16
2022-08-19T14:10:39.914Z,34.10
2022-08-19T14:13:28.954Z,34.16
2022-08-19T14:16:38.948Z,33.91
2022-08-19T14:19:36.026Z,34.07
2022-08-19T14:22:50.047Z,33.73
2022-08-19T14:26:15.532Z,33.66
2022-08-19T14:29:23.965Z,33.78
2022-08-19T14:32:26.539Z,33.92
2022-08-19T14:35:36.077Z,33.86
2022-08-19T14:38:38.666Z,34.19
2022-08-19T14:41:46.858Z,33.61
2022-08-19T14:44:48.077Z,33.70
2022-08-19T14:47:56.113Z,34.05
2022-08-19T14:51:05.847Z,33.89
2022-08-19T14:54:12.917Z,33.82
2022-08-19T14:57:17.914Z,33.68
2022-08-19T15:00:26.838Z,33.90
2022-08-19T15:03:28.346Z,33.74
2022-08-19T15:06:36.924Z,33.94
2022-08-19T15:09:38.290Z,33.78
2022-08-19T15:12:26.952Z,33.66
2022-08-19T15:15:27.426Z,33.79
2022-08-19T15:18:20.834Z,33.65
2022-08-19T15:21:10.043Z,33.84
2022-08-19T15:23:57.230Z,33.93
2022-08-19T15:26:46.975Z,33.76
2022-08-19T15:29:29.664Z,33.92
2022-08-19T15:32:19.875Z,33.92
2022-08-19T15:35:10.266Z,33.41
2022-08-19T15:37:56.486Z,33.54
2022-08-19T15:40:45.981Z,33.68
2022-08-19T15:43:28.076Z,33.70
2022-08-19T15:46:20.003Z,33.77
2022-08-19T15:49:05.314Z,33.34
2022-08-19T15:51:55.919Z,33.47
2022-08-19T15:54:39.056Z,33.46
2022-08-19T15:57:30.948Z,33.42
2022-08-19T16:00:38.826Z,33.15
2022-08-19T16:03:41.946Z,33.12
2022-08-19T16:06:32.523Z,33.21
2022-08-19T16:09:16.369Z,33.38
2022-08-19T16:12:15.786Z,33.35
2022-08-19T16:15:13.584Z,33.43
2022-08-19T16:17:57.844Z,33.39
2022-08-19T16:20:46.988Z,33.35
2022-08-19T16:23:29.186Z,33.42
2022-08-19T16:26:17.993Z,33.45
2022-08-19T16:29:12.188Z,33.53
2022-08-19T16:31:57.944Z,33.32
2022-08-19T16:34:48.228Z,33.11
2022-08-19T16:37:30.793Z,33.37
2022-08-19T16:40:20.758Z,33.14
2022-08-19T16:43:03.981Z,33.20
2022-08-19T16:45:56.301Z,33.32
2022-08-19T16:48:40.865Z,33.25
2022-08-19T16:51:30.905Z,33.15
2022-08-19T16:54:14.286Z,33.38
2022-08-19T16:57:03.890Z,33.20
2022-08-19T16:59:52.913Z,32.97
2022-08-19T17:02:42.801Z,33.01
2022-08-19T17:05:31.926Z,33.16
2022-08-19T17:08:14.632Z,33.08
2022-08-19T17:11:17.622Z,33.25
2022-08-19T17:14:12.744Z,32.89
2022-08-19T17:17:07.897Z,32.92
2022-08-19T17:19:56.090Z,33.15
2022-08-19T17:22:37.929Z,32.96
2022-08-19T17:25:20.041Z,33.06
2022-08-19T17:28:09.815Z,32.88
2022-08-19T17:30:58.920Z,32.89
2022-08-19T17:33:42.207Z,32.69
2022-08-19T17:36:30.888Z,32.79
2022-08-19T17:39:13.360Z,32.78
2022-08-19T17:42:02.766Z,32.81
2022-08-19T17:44:51.916Z,32.89
2022-08-19T17:47:42.916Z,32.85
2022-08-19T17:50:28.355Z,32.97
2022-08-19T17:53:18.181Z,32.89
2022-08-19T17:56:06.796Z,32.93
2022-08-19T17:59:00.428Z,32.45
2022-08-19T18:01:54.140Z,32.76
2022-08-19T18:04:48.236Z,32.70
2022-08-19T18:07:37.888Z,32.42
2022-08-19T18:10:34.708Z,32.38
2022-08-19T18:13:23.922Z,32.54
2022-08-19T18:16:19.777Z,32.50
2022-08-19T18:19:14.801Z,32.81
2022-08-19T18:22:03.222Z,32.34
2022-08-19T18:24:49.976Z,32.42
2022-08-19T18:27:32.678Z,32.33
2022-08-19T18:30:22.950Z,32.36
2022-08-19T18:33:14.723Z,32.14
2022-08-19T18:36:04.911Z,32.37
2022-08-19T18:39:08.160Z,32.22
2022-08-19T18:42:14.842Z,32.24
2022-08-19T18:45:21.805Z,32.46
2022-08-19T18:48:27.731Z,32.53
2022-08-19T18:51:20.027Z,32.28
2022-08-19T18:54:10.797Z,32.38
2022-08-19T18:57:03.422Z,31.96
2022-08-19T18:59:48.545Z,32.01
2022-08-19T19:02:37.798Z,32.21
2022-08-19T19:05:26.807Z,32.12
2022-08-19T19:08:15.989Z,32.02
2022-08-19T19:10:59.978Z,32.22
2022-08-19T19:13:48.894Z,31.90
2022-08-19T19:16:31.213Z,32.15
2022-08-19T19:19:28.058Z,32.08
2022-08-19T19:22:26.783Z,32.17
2022-08-19T19:25:16.938Z,32.16
2022-08-19T19:28:05.963Z,32.17
2022-08-19T19:30:54.843Z,32.19
2022-08-19T19:33:43.908Z,32.25
2022-08-19T19:36:32.800Z,31.94
2022-08-19T19:39:44.769Z,32.04
2022-08-19T19:42:25.521Z,32.34
2022-08-19T19:45:14.950Z,32.11
2022-08-19T19:48:03.240Z,32.24
2022-08-19T19:50:44.887Z,32.07
2022-08-19T19:53:34.819Z,32.14
2022-08-19T19:56:23.880Z,31.87
2022-08-19T19:59:06.169Z,32.29
2022-08-19T20:01:54.905Z,32.18
2022-08-19T20:04:42.110Z,32.16
2022-08-19T20:07:50.977Z,32.44
2022-08-19T20:10:39.142Z,32.24
2022-08-19T20:13:24.901Z,32.01
2022-08-19T20:16:07.332Z,32.05
2022-08-19T20:18:57.069Z,32.11
2022-08-19T20:21:52.739Z,32.00
2022-08-19T20:24:43.862Z,32.00
2022-08-19T20:27:39.961Z,32.01
2022-08-19T20:30:29.802Z,32.04
2022-08-19T20:33:15.640Z,31.87
2022-08-19T20:36:04.833Z,32.05
2022-08-19T20:38:47.182Z,32.15
2022-08-19T20:41:35.806Z,31.61
2022-08-19T20:44:18.251Z,32.08
2022-08-19T20:47:06.931Z,32.04
2022-08-19T20:49:49.159Z,31.87
2022-08-19T20:52:37.955Z,31.82
2022-08-19T20:55:22.747Z,32.14
2022-08-19T20:58:11.884Z,31.72
2022-08-19T21:01:02.900Z,31.56
2022-08-19T21:03:52.772Z,31.77
2022-08-19T21:06:35.173Z,31.79
2022-08-19T21:09:23.757Z,31.75
2022-08-19T21:12:12.803Z,31.88
2022-08-19T21:15:01.046Z,31.56
2022-08-19T21:17:42.849Z,31.68
2022-08-19T21:20:31.861Z,31.70
2022-08-19T21:23:30.706Z,31.67
2022-08-19T21:26:19.865Z,31.39
2022-08-19T21:29:02.120Z,31.55
2022-08-19T21:31:50.919Z,31.61
2022-08-19T21:34:33.171Z,31.60
2022-08-19T21:37:25.167Z,31.65
2022-08-19T21:40:08.170Z,31.31
2022-08-19T21:42:56.857Z,31.52
2022-08-19T21:45:39.054Z,31.40
2022-08-19T21:48:27.906Z,31.47
2022-08-19T21:51:10.045Z,31.51
2022-08-19T21:53:58.849Z,31.26
2022-08-19T21:56:42.120Z,31.75
2022-08-19T21:59:30.914Z,31.67
2022-08-19T22:02:20.516Z,31.58
2022-08-19T22:05:09.895Z,31.54
2022-08-19T22:07:52.062Z,31.13
2022-08-19T22:10:42.789Z,31.43
2022-08-19T22:13:26.017Z,31.32
2022-08-19T22:16:14.832Z,31.70
2022-08-19T22:18:58.358Z,31.34
2022-08-19T22:21:46.873Z,31.37
2022-08-19T22:24:29.347Z,31.68
2022-08-19T22:27:17.844Z,31.55
2022-08-19T22:30:06.888Z,31.38
2022-08-19T22:32:56.318Z,31.31
2022-08-19T22:35:47.828Z,31.25
2022-08-19T22:38:30.034Z,31.34
2022-08-19T22:41:19.855Z,31.55
2022-08-19T22:44:02.231Z,31.58
2022-08-19T22:46:50.846Z,31.56
2022-08-19T22:49:33.038Z,31.32
2022-08-19T22:52:27.883Z,31.29
2022-08-19T22:55:10.232Z,31.44
2022-08-19T22:57:58.886Z,31.22
2022-08-19T23:00:47.166Z,31.61
2022-08-19T23:03:28.875Z,31.28
2022-08-19T23:06:11.609Z,31.51
2022-08-19T23:09:00.858Z,31.26
2022-08-19T23:11:49.136Z,31.30
2022-08-19T23:14:31.840Z,31.35
2022-08-19T23:17:20.699Z,31.26
2022-08-19T23:20:03.744Z,31.25
2022-08-19T23:23:01.865Z,31.30
2022-08-19T23:25:44.014Z,31.12
2022-08-19T23:28:52.947Z,31.09
2022-08-19T23:31:42.850Z,31.17
2022-08-19T23:34:31.239Z,30.78
2022-08-19T23:37:12.839Z,31.21
2022-08-19T23:40:01.348Z,30.98
2022-08-19T23:42:42.778Z,30.78
2022-08-19T23:45:26.972Z,31.16
2022-08-19T23:48:15.861Z,30.96
2022-08-19T23:50:59.267Z,31.14
2022-08-19T23:53:49.166Z,31.14
2022-08-19T23:56:37.868Z,30.98
2022-08-19T23:59:20.612Z,30.98
